Terminal Aerodrome Forecast
Issued by NWS Mt. Holly, NJ

Current Version | Previous Version | Text Only | Print | Product List | Glossary On
Versions: 1 2 3 4 5 6 7 8 9 10 11 12 13 14 15 16 17 18 19 20 21 22 23 24 25 26 27 28 29 30 31 32 33 34 35 36 37 38 39 40 41 42 43 44 45 46 47 48 49 50
000
FTUS41 KPHI 210500
TAFABE
TAF
KABE 210539Z 2106/2206 18005KT P6SM VCSH BKN040 BKN060
     FM211500 18004KT P6SM SCT025 BKN040
     FM211900 22006KT P6SM -SHRA BKN040 BKN100
     FM212200 16004KT 6SM SHRA SCT025 OVC040
      TEMPO 2200/2203 5SM SHRA BKN025=

USA.gov is the U.S. government's official web portal to all federal, state and local government web resources and services.